sensor_id;sensor_type;location;lat;lon;timestamp;P1;durP1;ratioP1;P2;durP2;ratioP2
59273;SDS011;45044;41.572;24.730;2023-04-03T00:00:43;9.50;;;6.13;;
59273;SDS011;45044;41.572;24.730;2023-04-03T00:03:10;17.45;;;11.52;;
59273;SDS011;45044;41.572;24.730;2023-04-03T00:05:37;12.63;;;9.00;;
59273;SDS011;45044;41.572;24.730;2023-04-03T00:08:04;9.75;;;7.10;;
59273;SDS011;45044;41.572;24.730;2023-04-03T00:10:34;10.02;;;7.65;;
59273;SDS011;45044;41.572;24.730;2023-04-03T00:13:01;10.73;;;8.23;;
59273;SDS011;45044;41.572;24.730;2023-04-03T00:15:29;9.65;;;7.55;;
59273;SDS011;45044;41.572;24.730;2023-04-03T00:17:56;12.02;;;8.00;;
59273;SDS011;45044;41.572;24.730;2023-04-03T00:20:23;10.30;;;6.82;;
59273;SDS011;45044;41.572;24.730;2023-04-03T00:22:50;7.20;;;4.25;;
59273;SDS011;45044;41.572;24.730;2023-04-03T00:25:17;5.82;;;3.05;;
59273;SDS011;45044;41.572;24.730;2023-04-03T00:27:44;6.85;;;2.88;;
59273;SDS011;45044;41.572;24.730;2023-04-03T00:30:12;6.95;;;3.95;;
59273;SDS011;45044;41.572;24.730;2023-04-03T00:32:41;9.32;;;5.07;;
59273;SDS011;45044;41.572;24.730;2023-04-03T00:35:08;8.30;;;5.40;;
59273;SDS011;45044;41.572;24.730;2023-04-03T00:37:35;8.57;;;5.88;;
59273;SDS011;45044;41.572;24.730;2023-04-03T00:40:03;7.97;;;4.75;;
59273;SDS011;45044;41.572;24.730;2023-04-03T00:42:30;5.78;;;3.60;;
59273;SDS011;45044;41.572;24.730;2023-04-03T00:47:24;8.35;;;5.35;;
59273;SDS011;45044;41.572;24.730;2023-04-03T00:49:51;7.75;;;5.03;;
59273;SDS011;45044;41.572;24.730;2023-04-03T00:52:19;10.55;;;6.35;;
59273;SDS011;45044;41.572;24.730;2023-04-03T00:54:50;7.20;;;3.08;;
59273;SDS011;45044;41.572;24.730;2023-04-03T00:57:21;5.15;;;2.60;;
59273;SDS011;45044;41.572;24.730;2023-04-03T00:59:50;5.43;;;2.60;;
59273;SDS011;45044;41.572;24.730;2023-04-03T01:02:21;5.38;;;2.90;;
59273;SDS011;45044;41.572;24.730;2023-04-03T01:04:49;5.97;;;2.53;;
59273;SDS011;45044;41.572;24.730;2023-04-03T01:07:17;21.58;;;16.67;;
59273;SDS011;45044;41.572;24.730;2023-04-03T01:09:48;14.02;;;9.50;;
59273;SDS011;45044;41.572;24.730;2023-04-03T01:12:20;12.95;;;8.90;;
59273;SDS011;45044;41.572;24.730;2023-04-03T01:14:51;13.52;;;8.02;;
59273;SDS011;45044;41.572;24.730;2023-04-03T01:28:06;13.30;;;6.35;;
59273;SDS011;45044;41.572;24.730;2023-04-03T01:33:33;12.40;;;7.47;;
59273;SDS011;45044;41.572;24.730;2023-04-03T01:36:00;12.70;;;6.80;;
59273;SDS011;45044;41.572;24.730;2023-04-03T01:38:27;12.25;;;5.85;;
59273;SDS011;45044;41.572;24.730;2023-04-03T01:40:54;10.00;;;4.95;;
59273;SDS011;45044;41.572;24.730;2023-04-03T01:43:21;11.18;;;6.13;;
59273;SDS011;45044;41.572;24.730;2023-04-03T01:45:48;7.68;;;4.25;;
59273;SDS011;45044;41.572;24.730;2023-04-03T01:48:16;9.00;;;4.68;;
59273;SDS011;45044;41.572;24.730;2023-04-03T01:50:43;13.40;;;9.13;;
59273;SDS011;45044;41.572;24.730;2023-04-03T01:53:10;9.32;;;5.53;;
59273;SDS011;45044;41.572;24.730;2023-04-03T01:55:36;13.48;;;9.20;;
59273;SDS011;45044;41.572;24.730;2023-04-03T01:58:03;10.65;;;6.32;;
59273;SDS011;45044;41.572;24.730;2023-04-03T02:00:30;13.73;;;7.23;;
59273;SDS011;45044;41.572;24.730;2023-04-03T02:02:57;15.05;;;7.55;;
59273;SDS011;45044;41.572;24.730;2023-04-03T02:05:23;14.85;;;8.27;;
59273;SDS011;45044;41.572;24.730;2023-04-03T02:07:50;18.98;;;11.27;;
59273;SDS011;45044;41.572;24.730;2023-04-03T02:10:17;17.98;;;9.98;;
59273;SDS011;45044;41.572;24.730;2023-04-03T02:12:44;19.50;;;10.15;;
59273;SDS011;45044;41.572;24.730;2023-04-03T02:15:11;18.33;;;9.60;;
59273;SDS011;45044;41.572;24.730;2023-04-03T02:17:38;26.88;;;20.33;;
59273;SDS011;45044;41.572;24.730;2023-04-03T02:20:05;18.38;;;10.05;;
59273;SDS011;45044;41.572;24.730;2023-04-03T02:22:33;14.57;;;7.95;;
59273;SDS011;45044;41.572;24.730;2023-04-03T02:25:00;20.13;;;10.95;;
59273;SDS011;45044;41.572;24.730;2023-04-03T02:27:27;20.15;;;8.95;;
59273;SDS011;45044;41.572;24.730;2023-04-03T02:29:54;16.88;;;7.53;;
59273;SDS011;45044;41.572;24.730;2023-04-03T02:32:21;26.70;;;12.77;;
59273;SDS011;45044;41.572;24.730;2023-04-03T02:34:48;26.83;;;10.87;;
59273;SDS011;45044;41.572;24.730;2023-04-03T02:37:14;25.30;;;11.93;;
59273;SDS011;45044;41.572;24.730;2023-04-03T02:39:42;24.37;;;11.17;;
59273;SDS011;45044;41.572;24.730;2023-04-03T02:42:08;19.20;;;8.93;;
59273;SDS011;45044;41.572;24.730;2023-04-03T02:44:35;16.98;;;7.80;;
59273;SDS011;45044;41.572;24.730;2023-04-03T02:47:02;17.77;;;7.40;;
59273;SDS011;45044;41.572;24.730;2023-04-03T02:49:29;11.30;;;4.88;;
59273;SDS011;45044;41.572;24.730;2023-04-03T02:51:55;15.02;;;6.70;;
59273;SDS011;45044;41.572;24.730;2023-04-03T02:54:22;13.02;;;4.53;;
59273;SDS011;45044;41.572;24.730;2023-04-03T02:56:50;9.00;;;4.25;;
59273;SDS011;45044;41.572;24.730;2023-04-03T02:59:17;4.80;;;3.25;;
59273;SDS011;45044;41.572;24.730;2023-04-03T03:01:44;5.50;;;2.87;;
59273;SDS011;45044;41.572;24.730;2023-04-03T03:04:11;4.23;;;2.30;;
59273;SDS011;45044;41.572;24.730;2023-04-03T03:06:38;5.65;;;2.70;;
59273;SDS011;45044;41.572;24.730;2023-04-03T03:09:05;16.83;;;10.80;;
59273;SDS011;45044;41.572;24.730;2023-04-03T03:11:32;33.53;;;28.90;;
59273;SDS011;45044;41.572;24.730;2023-04-03T03:13:58;26.03;;;18.27;;
59273;SDS011;45044;41.572;24.730;2023-04-03T03:16:25;15.13;;;10.37;;
59273;SDS011;45044;41.572;24.730;2023-04-03T03:18:53;22.53;;;14.83;;
59273;SDS011;45044;41.572;24.730;2023-04-03T03:21:19;19.23;;;12.70;;
59273;SDS011;45044;41.572;24.730;2023-04-03T03:23:46;17.23;;;9.40;;
59273;SDS011;45044;41.572;24.730;2023-04-03T03:26:13;20.60;;;9.87;;
59273;SDS011;45044;41.572;24.730;2023-04-03T03:28:40;12.77;;;8.57;;
59273;SDS011;45044;41.572;24.730;2023-04-03T03:31:08;16.03;;;10.67;;
59273;SDS011;45044;41.572;24.730;2023-04-03T03:33:35;16.80;;;11.03;;
59273;SDS011;45044;41.572;24.730;2023-04-03T03:36:02;14.23;;;10.75;;
59273;SDS011;45044;41.572;24.730;2023-04-03T03:38:29;29.97;;;15.80;;
59273;SDS011;45044;41.572;24.730;2023-04-03T03:40:56;30.13;;;16.97;;
59273;SDS011;45044;41.572;24.730;2023-04-03T03:43:23;31.40;;;16.00;;
59273;SDS011;45044;41.572;24.730;2023-04-03T03:45:53;15.17;;;8.37;;
59273;SDS011;45044;41.572;24.730;2023-04-03T03:48:21;16.77;;;9.13;;
59273;SDS011;45044;41.572;24.730;2023-04-03T03:50:48;14.67;;;9.50;;
59273;SDS011;45044;41.572;24.730;2023-04-03T03:53:15;22.43;;;11.33;;
59273;SDS011;45044;41.572;24.730;2023-04-03T03:55:42;21.47;;;14.40;;
59273;SDS011;45044;41.572;24.730;2023-04-03T03:58:09;20.30;;;13.30;;
59273;SDS011;45044;41.572;24.730;2023-04-03T04:00:36;25.80;;;16.80;;
59273;SDS011;45044;41.572;24.730;2023-04-03T04:03:02;27.47;;;17.77;;
59273;SDS011;45044;41.572;24.730;2023-04-03T04:05:29;16.90;;;9.97;;
59273;SDS011;45044;41.572;24.730;2023-04-03T04:07:57;16.33;;;9.97;;
59273;SDS011;45044;41.572;24.730;2023-04-03T04:10:24;15.27;;;10.80;;
59273;SDS011;45044;41.572;24.730;2023-04-03T04:12:51;15.67;;;10.60;;
59273;SDS011;45044;41.572;24.730;2023-04-03T04:15:18;17.90;;;11.70;;
59273;SDS011;45044;41.572;24.730;2023-04-03T04:17:45;16.73;;;11.07;;
59273;SDS011;45044;41.572;24.730;2023-04-03T04:20:12;17.60;;;12.23;;
59273;SDS011;45044;41.572;24.730;2023-04-03T04:22:38;18.63;;;12.23;;
59273;SDS011;45044;41.572;24.730;2023-04-03T04:25:06;18.07;;;12.87;;
59273;SDS011;45044;41.572;24.730;2023-04-03T04:27:33;19.80;;;14.33;;
59273;SDS011;45044;41.572;24.730;2023-04-03T04:30:00;19.38;;;14.13;;
59273;SDS011;45044;41.572;24.730;2023-04-03T04:32:29;19.73;;;13.53;;
59273;SDS011;45044;41.572;24.730;2023-04-03T04:34:57;27.97;;;17.77;;
59273;SDS011;45044;41.572;24.730;2023-04-03T04:37:23;30.93;;;19.87;;
59273;SDS011;45044;41.572;24.730;2023-04-03T04:39:50;24.50;;;16.63;;
59273;SDS011;45044;41.572;24.730;2023-04-03T04:42:17;24.70;;;16.13;;
59273;SDS011;45044;41.572;24.730;2023-04-03T04:44:44;20.57;;;15.67;;
59273;SDS011;45044;41.572;24.730;2023-04-03T04:47:11;20.33;;;16.73;;
59273;SDS011;45044;41.572;24.730;2023-04-03T04:49:37;28.53;;;20.17;;
59273;SDS011;45044;41.572;24.730;2023-04-03T04:52:04;26.38;;;18.80;;
59273;SDS011;45044;41.572;24.730;2023-04-03T04:54:31;30.10;;;18.85;;
59273;SDS011;45044;41.572;24.730;2023-04-03T04:56:58;39.73;;;23.30;;
59273;SDS011;45044;41.572;24.730;2023-04-03T04:59:25;37.75;;;22.85;;
59273;SDS011;45044;41.572;24.730;2023-04-03T05:01:52;31.70;;;19.55;;
59273;SDS011;45044;41.572;24.730;2023-04-03T05:04:18;27.52;;;16.33;;
59273;SDS011;45044;41.572;24.730;2023-04-03T05:06:45;19.10;;;13.63;;
59273;SDS011;45044;41.572;24.730;2023-04-03T05:09:12;27.10;;;19.80;;
59273;SDS011;45044;41.572;24.730;2023-04-03T05:11:39;21.35;;;16.27;;
59273;SDS011;45044;41.572;24.730;2023-04-03T05:14:05;24.50;;;18.77;;
59273;SDS011;45044;41.572;24.730;2023-04-03T05:16:33;30.10;;;22.75;;
59273;SDS011;45044;41.572;24.730;2023-04-03T05:19:00;37.35;;;26.88;;
59273;SDS011;45044;41.572;24.730;2023-04-03T05:21:28;52.28;;;32.70;;
59273;SDS011;45044;41.572;24.730;2023-04-03T05:23:59;70.57;;;42.72;;
59273;SDS011;45044;41.572;24.730;2023-04-03T05:26:29;74.95;;;43.30;;
59273;SDS011;45044;41.572;24.730;2023-04-03T05:28:57;79.38;;;48.50;;
59273;SDS011;45044;41.572;24.730;2023-04-03T05:31:24;66.70;;;41.92;;
59273;SDS011;45044;41.572;24.730;2023-04-03T05:33:51;31.48;;;27.75;;
59273;SDS011;45044;41.572;24.730;2023-04-03T05:36:18;30.17;;;24.70;;
59273;SDS011;45044;41.572;24.730;2023-04-03T05:38:45;43.33;;;28.45;;
59273;SDS011;45044;41.572;24.730;2023-04-03T05:41:12;40.53;;;25.93;;
59273;SDS011;45044;41.572;24.730;2023-04-03T05:43:40;31.02;;;22.27;;
59273;SDS011;45044;41.572;24.730;2023-04-03T05:46:14;30.27;;;21.75;;
59273;SDS011;45044;41.572;24.730;2023-04-03T05:48:43;31.35;;;23.48;;
59273;SDS011;45044;41.572;24.730;2023-04-03T05:51:13;27.73;;;20.15;;
59273;SDS011;45044;41.572;24.730;2023-04-03T05:53:42;29.55;;;20.05;;
59273;SDS011;45044;41.572;24.730;2023-04-03T05:56:12;36.65;;;24.38;;
59273;SDS011;45044;41.572;24.730;2023-04-03T05:58:39;35.78;;;25.83;;
59273;SDS011;45044;41.572;24.730;2023-04-03T06:01:06;53.92;;;40.05;;
59273;SDS011;45044;41.572;24.730;2023-04-03T06:03:34;65.07;;;45.65;;
59273;SDS011;45044;41.572;24.730;2023-04-03T06:06:04;72.13;;;48.85;;
59273;SDS011;45044;41.572;24.730;2023-04-03T06:08:32;74.43;;;50.38;;
59273;SDS011;45044;41.572;24.730;2023-04-03T06:11:00;46.80;;;35.55;;
59273;SDS011;45044;41.572;24.730;2023-04-03T06:13:28;48.50;;;38.03;;
59273;SDS011;45044;41.572;24.730;2023-04-03T06:15:55;49.50;;;37.08;;
59273;SDS011;45044;41.572;24.730;2023-04-03T06:18:23;53.40;;;39.65;;
59273;SDS011;45044;41.572;24.730;2023-04-03T06:20:53;53.47;;;38.88;;
59273;SDS011;45044;41.572;24.730;2023-04-03T06:23:20;57.92;;;43.88;;
59273;SDS011;45044;41.572;24.730;2023-04-03T06:25:46;60.90;;;45.45;;
59273;SDS011;45044;41.572;24.730;2023-04-03T06:28:13;46.20;;;35.20;;
59273;SDS011;45044;41.572;24.730;2023-04-03T06:30:40;63.40;;;45.65;;
59273;SDS011;45044;41.572;24.730;2023-04-03T06:33:07;68.53;;;48.17;;
59273;SDS011;45044;41.572;24.730;2023-04-03T06:35:34;78.05;;;50.40;;
59273;SDS011;45044;41.572;24.730;2023-04-03T06:38:01;118.60;;;62.38;;
59273;SDS011;45044;41.572;24.730;2023-04-03T06:40:30;66.63;;;40.42;;
59273;SDS011;45044;41.572;24.730;2023-04-03T06:42:57;33.08;;;23.20;;
59273;SDS011;45044;41.572;24.730;2023-04-03T06:45:24;43.83;;;32.75;;
59273;SDS011;45044;41.572;24.730;2023-04-03T06:47:51;47.28;;;33.38;;
59273;SDS011;45044;41.572;24.730;2023-04-03T06:50:18;48.13;;;35.05;;
59273;SDS011;45044;41.572;24.730;2023-04-03T06:52:45;32.28;;;22.73;;
59273;SDS011;45044;41.572;24.730;2023-04-03T06:55:12;35.70;;;22.80;;
59273;SDS011;45044;41.572;24.730;2023-04-03T06:57:39;37.90;;;24.92;;
59273;SDS011;45044;41.572;24.730;2023-04-03T07:00:06;38.13;;;24.98;;
59273;SDS011;45044;41.572;24.730;2023-04-03T07:02:33;28.73;;;20.58;;
59273;SDS011;45044;41.572;24.730;2023-04-03T07:05:00;35.88;;;24.77;;
59273;SDS011;45044;41.572;24.730;2023-04-03T07:07:27;40.20;;;30.15;;
59273;SDS011;45044;41.572;24.730;2023-04-03T07:09:53;34.47;;;27.75;;
59273;SDS011;45044;41.572;24.730;2023-04-03T07:12:20;33.20;;;26.02;;
59273;SDS011;45044;41.572;24.730;2023-04-03T07:14:47;33.97;;;26.10;;
59273;SDS011;45044;41.572;24.730;2023-04-03T07:17:13;37.20;;;29.60;;
59273;SDS011;45044;41.572;24.730;2023-04-03T07:19:40;40.20;;;30.70;;
59273;SDS011;45044;41.572;24.730;2023-04-03T07:22:07;36.13;;;27.08;;
59273;SDS011;45044;41.572;24.730;2023-04-03T07:24:34;23.27;;;17.77;;
59273;SDS011;45044;41.572;24.730;2023-04-03T07:27:01;34.95;;;24.65;;
59273;SDS011;45044;41.572;24.730;2023-04-03T07:29:29;27.83;;;21.08;;
59273;SDS011;45044;41.572;24.730;2023-04-03T07:31:56;23.13;;;16.75;;
59273;SDS011;45044;41.572;24.730;2023-04-03T07:34:23;26.55;;;20.20;;
59273;SDS011;45044;41.572;24.730;2023-04-03T07:36:50;33.50;;;26.17;;
59273;SDS011;45044;41.572;24.730;2023-04-03T07:39:17;36.90;;;26.90;;
59273;SDS011;45044;41.572;24.730;2023-04-03T07:41:43;33.13;;;24.73;;
59273;SDS011;45044;41.572;24.730;2023-04-03T07:44:10;34.63;;;24.80;;
59273;SDS011;45044;41.572;24.730;2023-04-03T07:46:37;42.72;;;29.48;;
59273;SDS011;45044;41.572;24.730;2023-04-03T07:49:05;40.88;;;29.42;;
59273;SDS011;45044;41.572;24.730;2023-04-03T07:51:31;64.63;;;41.95;;
59273;SDS011;45044;41.572;24.730;2023-04-03T07:54:01;60.35;;;39.33;;
59273;SDS011;45044;41.572;24.730;2023-04-03T07:56:27;46.85;;;29.08;;
59273;SDS011;45044;41.572;24.730;2023-04-03T07:58:57;36.30;;;23.77;;
59273;SDS011;45044;41.572;24.730;2023-04-03T08:01:28;33.47;;;24.95;;
59273;SDS011;45044;41.572;24.730;2023-04-03T08:03:58;33.88;;;25.27;;
59273;SDS011;45044;41.572;24.730;2023-04-03T08:06:26;35.63;;;26.83;;
59273;SDS011;45044;41.572;24.730;2023-04-03T08:09:10;34.45;;;28.00;;
59273;SDS011;45044;41.572;24.730;2023-04-03T08:11:38;35.63;;;27.33;;
59273;SDS011;45044;41.572;24.730;2023-04-03T08:14:06;33.22;;;27.30;;
59273;SDS011;45044;41.572;24.730;2023-04-03T08:16:34;44.13;;;35.08;;
59273;SDS011;45044;41.572;24.730;2023-04-03T08:19:00;39.40;;;28.98;;
59273;SDS011;45044;41.572;24.730;2023-04-03T08:21:29;43.63;;;32.42;;
59273;SDS011;45044;41.572;24.730;2023-04-03T08:23:55;47.55;;;37.42;;
59273;SDS011;45044;41.572;24.730;2023-04-03T08:26:22;51.70;;;39.92;;
59273;SDS011;45044;41.572;24.730;2023-04-03T08:28:49;54.42;;;42.80;;
59273;SDS011;45044;41.572;24.730;2023-04-03T08:31:17;54.47;;;43.35;;
59273;SDS011;45044;41.572;24.730;2023-04-03T08:33:46;55.03;;;42.83;;
59273;SDS011;45044;41.572;24.730;2023-04-03T08:36:20;61.67;;;47.00;;
59273;SDS011;45044;41.572;24.730;2023-04-03T08:38:50;61.05;;;48.58;;
59273;SDS011;45044;41.572;24.730;2023-04-03T08:43:56;48.97;;;35.65;;
59273;SDS011;45044;41.572;24.730;2023-04-03T08:49:29;55.05;;;44.65;;
59273;SDS011;45044;41.572;24.730;2023-04-03T08:52:00;57.95;;;43.00;;
59273;SDS011;45044;41.572;24.730;2023-04-03T08:54:48;59.53;;;44.55;;
59273;SDS011;45044;41.572;24.730;2023-04-03T08:57:20;68.60;;;51.17;;
59273;SDS011;45044;41.572;24.730;2023-04-03T09:00:00;70.95;;;51.08;;
59273;SDS011;45044;41.572;24.730;2023-04-03T09:02:44;62.47;;;43.58;;
59273;SDS011;45044;41.572;24.730;2023-04-03T09:08:04;62.78;;;45.88;;
59273;SDS011;45044;41.572;24.730;2023-04-03T09:10:40;55.55;;;42.53;;
59273;SDS011;45044;41.572;24.730;2023-04-03T09:15:50;23.95;;;17.63;;
59273;SDS011;45044;41.572;24.730;2023-04-03T09:21:12;40.25;;;28.25;;
59273;SDS011;45044;41.572;24.730;2023-04-03T09:23:47;30.17;;;23.98;;
59273;SDS011;45044;41.572;24.730;2023-04-03T09:26:17;31.75;;;25.95;;
59273;SDS011;45044;41.572;24.730;2023-04-03T09:28:49;41.53;;;32.83;;
59273;SDS011;45044;41.572;24.730;2023-04-03T09:33:47;50.35;;;37.38;;
59273;SDS011;45044;41.572;24.730;2023-04-03T09:39:10;33.60;;;25.33;;
59273;SDS011;45044;41.572;24.730;2023-04-03T09:41:58;27.67;;;21.60;;
59273;SDS011;45044;41.572;24.730;2023-04-03T09:44:33;41.35;;;37.00;;
59273;SDS011;45044;41.572;24.730;2023-04-03T09:52:41;22.63;;;17.52;;
59273;SDS011;45044;41.572;24.730;2023-04-03T09:55:17;21.98;;;15.82;;
59273;SDS011;45044;41.572;24.730;2023-04-03T09:57:53;24.17;;;17.10;;
59273;SDS011;45044;41.572;24.730;2023-04-03T10:00:28;21.77;;;14.20;;
59273;SDS011;45044;41.572;24.730;2023-04-03T10:02:59;19.70;;;14.55;;
59273;SDS011;45044;41.572;24.730;2023-04-03T10:10:42;19.42;;;13.98;;
59273;SDS011;45044;41.572;24.730;2023-04-03T10:15:59;16.83;;;12.75;;
59273;SDS011;45044;41.572;24.730;2023-04-03T10:34:49;25.13;;;16.30;;
59273;SDS011;45044;41.572;24.730;2023-04-03T10:37:34;38.50;;;23.35;;
59273;SDS011;45044;41.572;24.730;2023-04-03T10:45:56;20.80;;;16.95;;
59273;SDS011;45044;41.572;24.730;2023-04-03T10:56:48;12.52;;;10.05;;
59273;SDS011;45044;41.572;24.730;2023-04-03T11:04:46;13.55;;;9.05;;
59273;SDS011;45044;41.572;24.730;2023-04-03T11:07:24;17.05;;;12.02;;
59273;SDS011;45044;41.572;24.730;2023-04-03T11:09:58;17.70;;;13.82;;
59273;SDS011;45044;41.572;24.730;2023-04-03T11:14:59;27.55;;;21.13;;
59273;SDS011;45044;41.572;24.730;2023-04-03T11:22:57;30.95;;;27.08;;
59273;SDS011;45044;41.572;24.730;2023-04-03T11:25:25;28.33;;;23.17;;
59273;SDS011;45044;41.572;24.730;2023-04-03T11:28:02;20.02;;;16.40;;
59273;SDS011;45044;41.572;24.730;2023-04-03T11:36:23;23.95;;;19.60;;
59273;SDS011;45044;41.572;24.730;2023-04-03T11:39:02;21.48;;;16.88;;
59273;SDS011;45044;41.572;24.730;2023-04-03T11:41:43;22.15;;;16.38;;
59273;SDS011;45044;41.572;24.730;2023-04-03T11:47:06;19.80;;;14.98;;
59273;SDS011;45044;41.572;24.730;2023-04-03T12:09:01;17.55;;;12.85;;
59273;SDS011;45044;41.572;24.730;2023-04-03T12:35:47;25.25;;;18.73;;
59273;SDS011;45044;41.572;24.730;2023-04-03T12:38:41;24.35;;;19.52;;
59273;SDS011;45044;41.572;24.730;2023-04-03T12:47:09;20.35;;;15.20;;
59273;SDS011;45044;41.572;24.730;2023-04-03T12:49:49;22.60;;;18.35;;
59273;SDS011;45044;41.572;24.730;2023-04-03T12:54:57;12.98;;;9.73;;
59273;SDS011;45044;41.572;24.730;2023-04-03T12:57:36;18.10;;;14.10;;
59273;SDS011;45044;41.572;24.730;2023-04-03T13:00:18;22.15;;;17.70;;
59273;SDS011;45044;41.572;24.730;2023-04-03T13:02:54;27.48;;;22.25;;
59273;SDS011;45044;41.572;24.730;2023-04-03T13:05:22;22.25;;;18.27;;
59273;SDS011;45044;41.572;24.730;2023-04-03T13:07:52;25.95;;;17.90;;
59273;SDS011;45044;41.572;24.730;2023-04-03T13:10:29;18.65;;;13.13;;
59273;SDS011;45044;41.572;24.730;2023-04-03T13:12:58;21.50;;;16.23;;
59273;SDS011;45044;41.572;24.730;2023-04-03T13:15:44;29.20;;;20.83;;
59273;SDS011;45044;41.572;24.730;2023-04-03T13:18:23;28.17;;;21.13;;
59273;SDS011;45044;41.572;24.730;2023-04-03T13:21:03;40.95;;;31.05;;
59273;SDS011;45044;41.572;24.730;2023-04-03T13:23:32;31.35;;;25.45;;
59273;SDS011;45044;41.572;24.730;2023-04-03T13:26:03;22.33;;;17.42;;
59273;SDS011;45044;41.572;24.730;2023-04-03T13:28:31;27.88;;;21.35;;
59273;SDS011;45044;41.572;24.730;2023-04-03T13:33:34;38.53;;;25.67;;
59273;SDS011;45044;41.572;24.730;2023-04-03T13:36:09;28.48;;;18.17;;
59273;SDS011;45044;41.572;24.730;2023-04-03T13:38:42;26.65;;;20.65;;
59273;SDS011;45044;41.572;24.730;2023-04-03T13:46:50;48.58;;;34.72;;
59273;SDS011;45044;41.572;24.730;2023-04-03T13:49:41;25.55;;;17.60;;
59273;SDS011;45044;41.572;24.730;2023-04-03T13:52:22;26.10;;;20.13;;
59273;SDS011;45044;41.572;24.730;2023-04-03T13:54:57;30.90;;;27.00;;
59273;SDS011;45044;41.572;24.730;2023-04-03T13:57:29;33.53;;;28.42;;
59273;SDS011;45044;41.572;24.730;2023-04-03T13:59:56;50.15;;;42.13;;
59273;SDS011;45044;41.572;24.730;2023-04-03T14:02:30;33.20;;;27.10;;
59273;SDS011;45044;41.572;24.730;2023-04-03T14:05:00;28.33;;;23.58;;
59273;SDS011;45044;41.572;24.730;2023-04-03T14:07:30;30.52;;;24.30;;
59273;SDS011;45044;41.572;24.730;2023-04-03T14:10:00;31.52;;;25.55;;
59273;SDS011;45044;41.572;24.730;2023-04-03T14:12:27;43.15;;;31.65;;
59273;SDS011;45044;41.572;24.730;2023-04-03T14:15:00;47.78;;;36.97;;
59273;SDS011;45044;41.572;24.730;2023-04-03T14:17:27;69.20;;;46.83;;
59273;SDS011;45044;41.572;24.730;2023-04-03T14:19:55;50.33;;;34.90;;
59273;SDS011;45044;41.572;24.730;2023-04-03T14:22:24;94.00;;;60.40;;
59273;SDS011;45044;41.572;24.730;2023-04-03T14:24:53;38.90;;;26.83;;
59273;SDS011;45044;41.572;24.730;2023-04-03T14:27:21;32.17;;;25.38;;
59273;SDS011;45044;41.572;24.730;2023-04-03T14:29:52;47.88;;;35.55;;
59273;SDS011;45044;41.572;24.730;2023-04-03T14:32:21;35.78;;;28.35;;
59273;SDS011;45044;41.572;24.730;2023-04-03T14:34:49;38.55;;;27.98;;
59273;SDS011;45044;41.572;24.730;2023-04-03T14:37:18;60.03;;;43.45;;
59273;SDS011;45044;41.572;24.730;2023-04-03T14:39:47;52.42;;;39.55;;
59273;SDS011;45044;41.572;24.730;2023-04-03T14:42:16;61.42;;;51.70;;
59273;SDS011;45044;41.572;24.730;2023-04-03T14:44:46;45.15;;;34.58;;
59273;SDS011;45044;41.572;24.730;2023-04-03T14:47:14;59.78;;;44.40;;
59273;SDS011;45044;41.572;24.730;2023-04-03T14:49:57;31.67;;;25.25;;
59273;SDS011;45044;41.572;24.730;2023-04-03T14:52:29;63.97;;;42.70;;
59273;SDS011;45044;41.572;24.730;2023-04-03T14:54:59;39.78;;;29.50;;
59273;SDS011;45044;41.572;24.730;2023-04-03T14:57:27;57.22;;;51.05;;
59273;SDS011;45044;41.572;24.730;2023-04-03T14:59:56;47.25;;;37.00;;
59273;SDS011;45044;41.572;24.730;2023-04-03T15:02:25;43.58;;;31.77;;
59273;SDS011;45044;41.572;24.730;2023-04-03T15:04:58;41.38;;;33.20;;
59273;SDS011;45044;41.572;24.730;2023-04-03T15:07:31;69.80;;;62.50;;
59273;SDS011;45044;41.572;24.730;2023-04-03T15:10:06;58.92;;;45.28;;
59273;SDS011;45044;41.572;24.730;2023-04-03T15:12:42;89.35;;;63.03;;
59273;SDS011;45044;41.572;24.730;2023-04-03T15:15:10;58.03;;;45.13;;
59273;SDS011;45044;41.572;24.730;2023-04-03T15:17:37;39.63;;;30.30;;
59273;SDS011;45044;41.572;24.730;2023-04-03T15:20:26;21.77;;;18.73;;
59273;SDS011;45044;41.572;24.730;2023-04-03T15:22:53;22.45;;;17.95;;
59273;SDS011;45044;41.572;24.730;2023-04-03T15:25:20;32.63;;;26.00;;
59273;SDS011;45044;41.572;24.730;2023-04-03T15:27:47;38.28;;;31.60;;
59273;SDS011;45044;41.572;24.730;2023-04-03T15:30:15;39.30;;;30.63;;
59273;SDS011;45044;41.572;24.730;2023-04-03T15:32:43;36.70;;;30.65;;
59273;SDS011;45044;41.572;24.730;2023-04-03T15:35:10;52.85;;;39.15;;
59273;SDS011;45044;41.572;24.730;2023-04-03T15:37:37;60.83;;;45.05;;
59273;SDS011;45044;41.572;24.730;2023-04-03T15:40:05;75.18;;;54.05;;
59273;SDS011;45044;41.572;24.730;2023-04-03T15:42:33;42.08;;;31.92;;
59273;SDS011;45044;41.572;24.730;2023-04-03T15:45:00;42.30;;;31.10;;
59273;SDS011;45044;41.572;24.730;2023-04-03T15:47:27;36.92;;;27.45;;
59273;SDS011;45044;41.572;24.730;2023-04-03T15:49:54;48.78;;;34.90;;
59273;SDS011;45044;41.572;24.730;2023-04-03T15:52:21;41.80;;;30.52;;
59273;SDS011;45044;41.572;24.730;2023-04-03T15:54:48;19.20;;;15.35;;
59273;SDS011;45044;41.572;24.730;2023-04-03T15:57:15;19.50;;;13.98;;
59273;SDS011;45044;41.572;24.730;2023-04-03T15:59:42;17.80;;;13.20;;
59273;SDS011;45044;41.572;24.730;2023-04-03T16:02:09;19.70;;;16.00;;
59273;SDS011;45044;41.572;24.730;2023-04-03T16:04:39;33.88;;;28.88;;
59273;SDS011;45044;41.572;24.730;2023-04-03T16:07:07;38.88;;;32.72;;
59273;SDS011;45044;41.572;24.730;2023-04-03T16:09:34;37.65;;;30.52;;
59273;SDS011;45044;41.572;24.730;2023-04-03T16:12:02;56.20;;;42.47;;
59273;SDS011;45044;41.572;24.730;2023-04-03T16:14:30;44.08;;;35.38;;
59273;SDS011;45044;41.572;24.730;2023-04-03T16:16:57;57.67;;;43.20;;
59273;SDS011;45044;41.572;24.730;2023-04-03T16:19:26;57.13;;;44.70;;
59273;SDS011;45044;41.572;24.730;2023-04-03T16:21:53;72.60;;;48.63;;
59273;SDS011;45044;41.572;24.730;2023-04-03T16:24:21;73.25;;;51.47;;
59273;SDS011;45044;41.572;24.730;2023-04-03T16:26:48;62.83;;;48.00;;
59273;SDS011;45044;41.572;24.730;2023-04-03T16:29:15;60.38;;;47.25;;
59273;SDS011;45044;41.572;24.730;2023-04-03T16:31:43;60.33;;;46.55;;
59273;SDS011;45044;41.572;24.730;2023-04-03T16:34:10;47.00;;;36.35;;
59273;SDS011;45044;41.572;24.730;2023-04-03T16:36:38;65.85;;;49.13;;
59273;SDS011;45044;41.572;24.730;2023-04-03T16:39:05;60.35;;;47.45;;
59273;SDS011;45044;41.572;24.730;2023-04-03T16:41:32;64.68;;;52.05;;
59273;SDS011;45044;41.572;24.730;2023-04-03T16:43:58;74.47;;;56.75;;
59273;SDS011;45044;41.572;24.730;2023-04-03T16:46:26;66.30;;;50.95;;
59273;SDS011;45044;41.572;24.730;2023-04-03T16:48:52;62.55;;;48.17;;
59273;SDS011;45044;41.572;24.730;2023-04-03T16:51:20;71.97;;;55.92;;
59273;SDS011;45044;41.572;24.730;2023-04-03T16:53:46;123.90;;;98.75;;
59273;SDS011;45044;41.572;24.730;2023-04-03T16:56:13;129.90;;;100.78;;
59273;SDS011;45044;41.572;24.730;2023-04-03T16:58:40;113.75;;;88.18;;
59273;SDS011;45044;41.572;24.730;2023-04-03T17:01:13;82.35;;;62.85;;
59273;SDS011;45044;41.572;24.730;2023-04-03T17:03:42;89.15;;;72.00;;